Startpagina
METAR-TAF:

METAR-TAF

Vliegvelden :

Coeur d'Alene, Idaho, Verenigde Staten

breedte: 47-46N, lengte: 116-49W, hoogte: 707 m

Actueel weer

Dit bericht is 36 minuten geleden gemaakt, om 12:56 UTC
Weinig wind
Temperatuur 16°C
Vochtigheid 63%
Druk 1017 hPa
Zicht: 16.1 km
Onbewolkt

METAR: KCOE 171256Z AUTO 00000KT 10SM CLR 16/09 A3003 RMK AO2 SLP164 T01610094 PNO $

Tijdstip: 06:32 (13:32 UTC)

Verwachting

Dit bericht is 2 uur en het 2 minuten geleden gemaakt, om 11:30 UTC
Verwachting geldig van 17 om 12 UTC tot 18 om 12 UTC
Wind 5 kt uit het oostzuidoosten
Zicht: 10 km
Weinig wolken op 25000 ft
Van 17 om 2000 UTC
Wind 7 kt uit het zuidwesten
Zicht: 10 km
Weinig wolken op 25000 ft
Van 18 om 0300 UTC
Wind 4 kt uit het zuidzuidoosten
Zicht: 10 km
Onbewolkt
Van 18 om 0900 UTC
Wind 8 kt uit het zuiden
Zicht: 10 km
Onbewolkt

TAF: KCOE 171130Z 1712/1812 11005KT P6SM FEW250 FM172000 22007KT P6SM FEW250 FM180300 16004KT P6SM SKC FM180900 17008KT P6SM SKC

Waarnemingen en weersverwachtingen van meer dan 4000 vliegvelden (METAR en TAF).

De beschikbare stations zijn de gele en rode punten op de kaart.

Ga met uw muis naar het station om de naam te zien.

Klik dan om waarnemingen en weersverwachtingen te zien.

kaart wijzigen: klik op de groene knoppen met een zwart kruis om in te zoomen, op de groene knop met een streepje om uit te zoomen of op de groene pijlen voor aangrenzende kaarten.


METAR-TAF: